sensor_id;sensor_type;location;lat;lon;timestamp;P1;durP1;ratioP1;P2;durP2;ratioP2
5622;SDS011;2833;50.432;10.706;2023-04-06T00:00:31;9.30;;;5.80;;
5622;SDS011;2833;50.432;10.706;2023-04-06T00:02:56;6.90;;;4.13;;
5622;SDS011;2833;50.432;10.706;2023-04-06T00:05:21;9.83;;;5.20;;
5622;SDS011;2833;50.432;10.706;2023-04-06T00:07:47;12.90;;;5.30;;
5622;SDS011;2833;50.432;10.706;2023-04-06T00:10:13;10.77;;;5.50;;
5622;SDS011;2833;50.432;10.706;2023-04-06T00:12:38;6.73;;;4.50;;
5622;SDS011;2833;50.432;10.706;2023-04-06T00:15:03;6.77;;;4.37;;
5622;SDS011;2833;50.432;10.706;2023-04-06T00:17:30;8.20;;;4.73;;
5622;SDS011;2833;50.432;10.706;2023-04-06T00:19:55;7.37;;;5.10;;
5622;SDS011;2833;50.432;10.706;2023-04-06T00:22:20;11.03;;;5.50;;
5622;SDS011;2833;50.432;10.706;2023-04-06T00:24:46;4.77;;;4.27;;
5622;SDS011;2833;50.432;10.706;2023-04-06T00:27:11;7.73;;;4.60;;
5622;SDS011;2833;50.432;10.706;2023-04-06T00:29:36;6.60;;;4.80;;
5622;SDS011;2833;50.432;10.706;2023-04-06T00:32:01;12.03;;;5.13;;
5622;SDS011;2833;50.432;10.706;2023-04-06T00:34:27;9.50;;;5.00;;
5622;SDS011;2833;50.432;10.706;2023-04-06T00:36:52;12.03;;;5.60;;
5622;SDS011;2833;50.432;10.706;2023-04-06T00:39:17;15.20;;;7.90;;
5622;SDS011;2833;50.432;10.706;2023-04-06T00:41:45;19.03;;;9.00;;
5622;SDS011;2833;50.432;10.706;2023-04-06T00:44:11;14.03;;;7.43;;
5622;SDS011;2833;50.432;10.706;2023-04-06T00:46:36;9.60;;;5.50;;
5622;SDS011;2833;50.432;10.706;2023-04-06T00:49:01;14.73;;;7.27;;
5622;SDS011;2833;50.432;10.706;2023-04-06T00:51:26;7.63;;;5.83;;
5622;SDS011;2833;50.432;10.706;2023-04-06T00:53:52;6.00;;;4.60;;
5622;SDS011;2833;50.432;10.706;2023-04-06T00:56:17;5.57;;;4.33;;
5622;SDS011;2833;50.432;10.706;2023-04-06T00:58:42;6.30;;;5.03;;
5622;SDS011;2833;50.432;10.706;2023-04-06T01:01:08;6.70;;;4.50;;
5622;SDS011;2833;50.432;10.706;2023-04-06T01:03:33;5.50;;;4.20;;
5622;SDS011;2833;50.432;10.706;2023-04-06T01:05:58;11.33;;;6.60;;
5622;SDS011;2833;50.432;10.706;2023-04-06T01:08:24;9.20;;;5.40;;
5622;SDS011;2833;50.432;10.706;2023-04-06T01:10:49;13.53;;;5.73;;
5622;SDS011;2833;50.432;10.706;2023-04-06T01:13:15;5.70;;;4.60;;
5622;SDS011;2833;50.432;10.706;2023-04-06T01:15:40;5.97;;;4.67;;
5622;SDS011;2833;50.432;10.706;2023-04-06T01:18:07;6.30;;;4.13;;
5622;SDS011;2833;50.432;10.706;2023-04-06T01:20:33;7.03;;;4.37;;
5622;SDS011;2833;50.432;10.706;2023-04-06T01:22:58;6.03;;;4.63;;
5622;SDS011;2833;50.432;10.706;2023-04-06T01:25:24;5.87;;;4.10;;
5622;SDS011;2833;50.432;10.706;2023-04-06T01:27:49;4.50;;;3.90;;
5622;SDS011;2833;50.432;10.706;2023-04-06T01:30:14;5.93;;;4.30;;
5622;SDS011;2833;50.432;10.706;2023-04-06T01:32:41;7.17;;;4.63;;
5622;SDS011;2833;50.432;10.706;2023-04-06T01:35:06;8.07;;;4.77;;
5622;SDS011;2833;50.432;10.706;2023-04-06T01:37:32;10.13;;;4.50;;
5622;SDS011;2833;50.432;10.706;2023-04-06T01:39:57;11.83;;;4.20;;
5622;SDS011;2833;50.432;10.706;2023-04-06T01:42:22;9.10;;;4.77;;
5622;SDS011;2833;50.432;10.706;2023-04-06T01:44:47;6.80;;;4.47;;
5622;SDS011;2833;50.432;10.706;2023-04-06T01:47:13;6.97;;;4.40;;
5622;SDS011;2833;50.432;10.706;2023-04-06T01:49:38;7.43;;;4.57;;
5622;SDS011;2833;50.432;10.706;2023-04-06T01:52:03;6.70;;;4.53;;
5622;SDS011;2833;50.432;10.706;2023-04-06T01:54:28;5.47;;;4.00;;
5622;SDS011;2833;50.432;10.706;2023-04-06T01:56:53;6.67;;;4.60;;
5622;SDS011;2833;50.432;10.706;2023-04-06T01:59:19;8.60;;;5.10;;
5622;SDS011;2833;50.432;10.706;2023-04-06T02:01:44;5.03;;;3.93;;
5622;SDS011;2833;50.432;10.706;2023-04-06T02:04:10;5.50;;;4.30;;
5622;SDS011;2833;50.432;10.706;2023-04-06T02:06:35;6.67;;;4.10;;
5622;SDS011;2833;50.432;10.706;2023-04-06T02:09:00;7.07;;;4.80;;
5622;SDS011;2833;50.432;10.706;2023-04-06T02:11:25;5.10;;;4.10;;
5622;SDS011;2833;50.432;10.706;2023-04-06T02:13:50;6.10;;;4.30;;
5622;SDS011;2833;50.432;10.706;2023-04-06T02:16:16;7.03;;;3.77;;
5622;SDS011;2833;50.432;10.706;2023-04-06T02:18:41;4.40;;;4.00;;
5622;SDS011;2833;50.432;10.706;2023-04-06T02:21:06;6.00;;;4.60;;
5622;SDS011;2833;50.432;10.706;2023-04-06T02:23:31;6.20;;;4.20;;
5622;SDS011;2833;50.432;10.706;2023-04-06T02:25:56;6.33;;;4.60;;
5622;SDS011;2833;50.432;10.706;2023-04-06T02:28:22;5.80;;;4.83;;
5622;SDS011;2833;50.432;10.706;2023-04-06T02:30:47;4.90;;;4.20;;
5622;SDS011;2833;50.432;10.706;2023-04-06T02:33:12;6.97;;;4.80;;
5622;SDS011;2833;50.432;10.706;2023-04-06T02:35:37;6.70;;;4.70;;
5622;SDS011;2833;50.432;10.706;2023-04-06T02:38:02;8.00;;;5.03;;
5622;SDS011;2833;50.432;10.706;2023-04-06T02:40:27;7.10;;;4.70;;
5622;SDS011;2833;50.432;10.706;2023-04-06T02:42:53;5.23;;;4.67;;
5622;SDS011;2833;50.432;10.706;2023-04-06T02:45:18;14.03;;;4.60;;
5622;SDS011;2833;50.432;10.706;2023-04-06T02:47:43;8.20;;;5.30;;
5622;SDS011;2833;50.432;10.706;2023-04-06T02:50:08;7.07;;;4.67;;
5622;SDS011;2833;50.432;10.706;2023-04-06T02:52:34;9.00;;;5.23;;
5622;SDS011;2833;50.432;10.706;2023-04-06T02:54:59;10.70;;;6.13;;
5622;SDS011;2833;50.432;10.706;2023-04-06T02:57:24;14.50;;;6.37;;
5622;SDS011;2833;50.432;10.706;2023-04-06T02:59:50;7.30;;;5.60;;
5622;SDS011;2833;50.432;10.706;2023-04-06T03:02:15;10.97;;;6.20;;
5622;SDS011;2833;50.432;10.706;2023-04-06T03:04:40;13.13;;;7.20;;
5622;SDS011;2833;50.432;10.706;2023-04-06T03:07:05;18.40;;;9.03;;
5622;SDS011;2833;50.432;10.706;2023-04-06T03:09:30;23.00;;;11.00;;
5622;SDS011;2833;50.432;10.706;2023-04-06T03:11:56;35.57;;;15.70;;
5622;SDS011;2833;50.432;10.706;2023-04-06T03:14:21;19.50;;;8.67;;
5622;SDS011;2833;50.432;10.706;2023-04-06T03:16:50;14.13;;;6.37;;
5622;SDS011;2833;50.432;10.706;2023-04-06T03:19:15;15.53;;;7.10;;
5622;SDS011;2833;50.432;10.706;2023-04-06T03:21:40;16.03;;;8.23;;
5622;SDS011;2833;50.432;10.706;2023-04-06T03:24:06;14.27;;;8.80;;
5622;SDS011;2833;50.432;10.706;2023-04-06T03:26:31;13.20;;;7.23;;
5622;SDS011;2833;50.432;10.706;2023-04-06T03:28:56;12.83;;;6.93;;
5622;SDS011;2833;50.432;10.706;2023-04-06T03:31:22;12.07;;;6.73;;
5622;SDS011;2833;50.432;10.706;2023-04-06T03:33:47;18.63;;;8.60;;
5622;SDS011;2833;50.432;10.706;2023-04-06T03:36:12;8.00;;;5.90;;
5622;SDS011;2833;50.432;10.706;2023-04-06T03:38:37;5.00;;;4.40;;
5622;SDS011;2833;50.432;10.706;2023-04-06T03:41:02;7.50;;;5.17;;
5622;SDS011;2833;50.432;10.706;2023-04-06T03:43:28;8.17;;;4.93;;
5622;SDS011;2833;50.432;10.706;2023-04-06T03:45:53;6.77;;;4.93;;
5622;SDS011;2833;50.432;10.706;2023-04-06T03:48:18;7.77;;;4.90;;
5622;SDS011;2833;50.432;10.706;2023-04-06T03:50:43;6.37;;;4.60;;
5622;SDS011;2833;50.432;10.706;2023-04-06T03:53:08;8.73;;;4.90;;
5622;SDS011;2833;50.432;10.706;2023-04-06T03:55:33;7.17;;;4.80;;
5622;SDS011;2833;50.432;10.706;2023-04-06T03:57:59;7.60;;;5.50;;
5622;SDS011;2833;50.432;10.706;2023-04-06T04:00:24;6.73;;;5.60;;
5622;SDS011;2833;50.432;10.706;2023-04-06T04:02:50;7.13;;;5.47;;
5622;SDS011;2833;50.432;10.706;2023-04-06T04:05:15;8.83;;;6.20;;
5622;SDS011;2833;50.432;10.706;2023-04-06T04:07:40;6.53;;;5.37;;
5622;SDS011;2833;50.432;10.706;2023-04-06T04:10:06;6.23;;;5.03;;
5622;SDS011;2833;50.432;10.706;2023-04-06T04:12:31;11.83;;;5.10;;
5622;SDS011;2833;50.432;10.706;2023-04-06T04:14:56;10.17;;;5.83;;
5622;SDS011;2833;50.432;10.706;2023-04-06T04:17:21;10.93;;;5.93;;
5622;SDS011;2833;50.432;10.706;2023-04-06T04:19:47;8.77;;;5.27;;
5622;SDS011;2833;50.432;10.706;2023-04-06T04:22:12;9.50;;;5.40;;
5622;SDS011;2833;50.432;10.706;2023-04-06T04:24:37;7.90;;;5.47;;
5622;SDS011;2833;50.432;10.706;2023-04-06T04:27:02;7.43;;;5.50;;
5622;SDS011;2833;50.432;10.706;2023-04-06T04:29:27;6.63;;;5.13;;
5622;SDS011;2833;50.432;10.706;2023-04-06T04:31:52;10.20;;;5.33;;
5622;SDS011;2833;50.432;10.706;2023-04-06T04:34:18;6.47;;;4.77;;
5622;SDS011;2833;50.432;10.706;2023-04-06T04:36:45;6.97;;;5.13;;
5622;SDS011;2833;50.432;10.706;2023-04-06T04:39:10;5.90;;;5.07;;
5622;SDS011;2833;50.432;10.706;2023-04-06T04:41:36;7.83;;;5.07;;
5622;SDS011;2833;50.432;10.706;2023-04-06T04:44:01;8.03;;;5.03;;
5622;SDS011;2833;50.432;10.706;2023-04-06T04:46:26;8.40;;;5.20;;
5622;SDS011;2833;50.432;10.706;2023-04-06T04:48:52;8.43;;;5.50;;
5622;SDS011;2833;50.432;10.706;2023-04-06T04:51:17;7.33;;;5.53;;
5622;SDS011;2833;50.432;10.706;2023-04-06T04:53:42;11.17;;;6.17;;
5622;SDS011;2833;50.432;10.706;2023-04-06T04:56:07;10.20;;;5.90;;
5622;SDS011;2833;50.432;10.706;2023-04-06T04:58:32;9.27;;;5.43;;
5622;SDS011;2833;50.432;10.706;2023-04-06T05:00:58;8.60;;;5.33;;
5622;SDS011;2833;50.432;10.706;2023-04-06T05:03:23;7.00;;;5.20;;
5622;SDS011;2833;50.432;10.706;2023-04-06T05:05:49;7.27;;;4.90;;
5622;SDS011;2833;50.432;10.706;2023-04-06T05:08:15;7.97;;;5.40;;
5622;SDS011;2833;50.432;10.706;2023-04-06T05:10:40;8.10;;;5.53;;
5622;SDS011;2833;50.432;10.706;2023-04-06T05:13:05;12.70;;;5.40;;
5622;SDS011;2833;50.432;10.706;2023-04-06T05:15:30;7.43;;;5.10;;
5622;SDS011;2833;50.432;10.706;2023-04-06T05:17:56;7.60;;;5.07;;
5622;SDS011;2833;50.432;10.706;2023-04-06T05:20:21;9.97;;;5.47;;
5622;SDS011;2833;50.432;10.706;2023-04-06T05:22:46;8.10;;;5.20;;
5622;SDS011;2833;50.432;10.706;2023-04-06T05:25:12;10.70;;;5.47;;
5622;SDS011;2833;50.432;10.706;2023-04-06T05:27:37;11.00;;;5.30;;
5622;SDS011;2833;50.432;10.706;2023-04-06T05:30:03;14.17;;;9.10;;
5622;SDS011;2833;50.432;10.706;2023-04-06T05:32:28;10.40;;;6.30;;
5622;SDS011;2833;50.432;10.706;2023-04-06T05:34:53;12.03;;;7.73;;
5622;SDS011;2833;50.432;10.706;2023-04-06T05:37:19;12.80;;;6.00;;
5622;SDS011;2833;50.432;10.706;2023-04-06T05:39:44;17.70;;;9.17;;
5622;SDS011;2833;50.432;10.706;2023-04-06T05:42:10;17.77;;;11.33;;
5622;SDS011;2833;50.432;10.706;2023-04-06T05:44:36;15.53;;;8.07;;
5622;SDS011;2833;50.432;10.706;2023-04-06T05:47:02;11.63;;;6.50;;
5622;SDS011;2833;50.432;10.706;2023-04-06T05:49:27;14.43;;;8.60;;
5622;SDS011;2833;50.432;10.706;2023-04-06T05:51:52;11.80;;;7.40;;
5622;SDS011;2833;50.432;10.706;2023-04-06T05:54:17;15.30;;;8.97;;
5622;SDS011;2833;50.432;10.706;2023-04-06T05:56:42;28.50;;;13.30;;
5622;SDS011;2833;50.432;10.706;2023-04-06T05:59:08;40.93;;;21.30;;
5622;SDS011;2833;50.432;10.706;2023-04-06T06:01:33;33.93;;;15.60;;
5622;SDS011;2833;50.432;10.706;2023-04-06T06:04:02;12.47;;;7.50;;
5622;SDS011;2833;50.432;10.706;2023-04-06T06:06:28;18.70;;;8.17;;
5622;SDS011;2833;50.432;10.706;2023-04-06T06:08:55;14.07;;;7.33;;
5622;SDS011;2833;50.432;10.706;2023-04-06T06:11:21;42.43;;;14.90;;
5622;SDS011;2833;50.432;10.706;2023-04-06T06:13:46;61.70;;;22.00;;
5622;SDS011;2833;50.432;10.706;2023-04-06T06:16:11;29.03;;;13.43;;
5622;SDS011;2833;50.432;10.706;2023-04-06T06:18:36;63.70;;;25.00;;
5622;SDS011;2833;50.432;10.706;2023-04-06T06:21:02;45.67;;;18.03;;
5622;SDS011;2833;50.432;10.706;2023-04-06T06:23:27;25.93;;;12.40;;
5622;SDS011;2833;50.432;10.706;2023-04-06T06:25:52;17.67;;;9.33;;
5622;SDS011;2833;50.432;10.706;2023-04-06T06:28:18;10.83;;;6.10;;
5622;SDS011;2833;50.432;10.706;2023-04-06T06:30:43;10.53;;;7.37;;
5622;SDS011;2833;50.432;10.706;2023-04-06T06:33:08;10.47;;;7.10;;
5622;SDS011;2833;50.432;10.706;2023-04-06T06:35:33;14.23;;;7.83;;
5622;SDS011;2833;50.432;10.706;2023-04-06T06:37:58;17.20;;;9.53;;
5622;SDS011;2833;50.432;10.706;2023-04-06T06:40:24;17.77;;;9.47;;
5622;SDS011;2833;50.432;10.706;2023-04-06T06:42:49;41.97;;;17.90;;
5622;SDS011;2833;50.432;10.706;2023-04-06T06:45:15;27.77;;;13.53;;
5622;SDS011;2833;50.432;10.706;2023-04-06T06:47:40;55.37;;;24.70;;
5622;SDS011;2833;50.432;10.706;2023-04-06T06:50:06;51.30;;;22.30;;
5622;SDS011;2833;50.432;10.706;2023-04-06T06:52:31;62.97;;;26.40;;
5622;SDS011;2833;50.432;10.706;2023-04-06T06:54:56;45.30;;;22.00;;
5622;SDS011;2833;50.432;10.706;2023-04-06T06:57:22;25.17;;;13.20;;
5622;SDS011;2833;50.432;10.706;2023-04-06T06:59:47;40.00;;;19.00;;
5622;SDS011;2833;50.432;10.706;2023-04-06T07:02:12;18.47;;;9.87;;
5622;SDS011;2833;50.432;10.706;2023-04-06T07:04:37;38.30;;;18.17;;
5622;SDS011;2833;50.432;10.706;2023-04-06T07:07:02;33.93;;;16.30;;
5622;SDS011;2833;50.432;10.706;2023-04-06T07:09:28;12.33;;;6.40;;
5622;SDS011;2833;50.432;10.706;2023-04-06T07:11:53;8.47;;;6.40;;
5622;SDS011;2833;50.432;10.706;2023-04-06T07:14:19;12.30;;;6.70;;
5622;SDS011;2833;50.432;10.706;2023-04-06T07:16:44;10.17;;;6.17;;
5622;SDS011;2833;50.432;10.706;2023-04-06T07:19:10;7.63;;;5.83;;
5622;SDS011;2833;50.432;10.706;2023-04-06T07:21:35;7.77;;;5.83;;
5622;SDS011;2833;50.432;10.706;2023-04-06T07:24:00;8.40;;;5.87;;
5622;SDS011;2833;50.432;10.706;2023-04-06T07:26:26;8.80;;;5.70;;
5622;SDS011;2833;50.432;10.706;2023-04-06T07:28:51;7.17;;;4.97;;
5622;SDS011;2833;50.432;10.706;2023-04-06T07:31:17;9.93;;;5.70;;
5622;SDS011;2833;50.432;10.706;2023-04-06T07:33:42;6.93;;;5.03;;
5622;SDS011;2833;50.432;10.706;2023-04-06T07:36:07;7.30;;;4.87;;
5622;SDS011;2833;50.432;10.706;2023-04-06T07:38:32;7.80;;;5.07;;
5622;SDS011;2833;50.432;10.706;2023-04-06T07:40:57;10.23;;;5.90;;
5622;SDS011;2833;50.432;10.706;2023-04-06T07:43:22;10.40;;;6.20;;
5622;SDS011;2833;50.432;10.706;2023-04-06T07:45:48;7.17;;;5.17;;
5622;SDS011;2833;50.432;10.706;2023-04-06T07:48:13;10.10;;;4.67;;
5622;SDS011;2833;50.432;10.706;2023-04-06T07:50:38;6.80;;;4.60;;
5622;SDS011;2833;50.432;10.706;2023-04-06T07:53:04;7.10;;;4.70;;
5622;SDS011;2833;50.432;10.706;2023-04-06T07:55:30;8.00;;;4.90;;
5622;SDS011;2833;50.432;10.706;2023-04-06T07:57:55;7.87;;;5.07;;
5622;SDS011;2833;50.432;10.706;2023-04-06T08:00:20;10.00;;;5.47;;
5622;SDS011;2833;50.432;10.706;2023-04-06T08:02:46;15.83;;;5.90;;
5622;SDS011;2833;50.432;10.706;2023-04-06T08:05:11;6.50;;;4.60;;
5622;SDS011;2833;50.432;10.706;2023-04-06T08:07:36;7.13;;;4.90;;
5622;SDS011;2833;50.432;10.706;2023-04-06T08:10:02;12.37;;;5.50;;
5622;SDS011;2833;50.432;10.706;2023-04-06T08:12:27;9.20;;;6.00;;
5622;SDS011;2833;50.432;10.706;2023-04-06T08:14:52;9.60;;;4.93;;
5622;SDS011;2833;50.432;10.706;2023-04-06T08:17:17;9.63;;;5.57;;
5622;SDS011;2833;50.432;10.706;2023-04-06T08:19:43;12.40;;;5.57;;
5622;SDS011;2833;50.432;10.706;2023-04-06T08:22:09;9.63;;;6.40;;
5622;SDS011;2833;50.432;10.706;2023-04-06T08:24:34;9.27;;;5.13;;
5622;SDS011;2833;50.432;10.706;2023-04-06T08:26:59;7.90;;;5.07;;
5622;SDS011;2833;50.432;10.706;2023-04-06T08:29:24;8.03;;;5.70;;
5622;SDS011;2833;50.432;10.706;2023-04-06T08:31:49;8.80;;;5.17;;
5622;SDS011;2833;50.432;10.706;2023-04-06T08:34:15;10.97;;;6.63;;
5622;SDS011;2833;50.432;10.706;2023-04-06T08:36:40;5.87;;;4.20;;
5622;SDS011;2833;50.432;10.706;2023-04-06T08:39:06;11.83;;;6.87;;
5622;SDS011;2833;50.432;10.706;2023-04-06T08:41:31;14.43;;;7.27;;
5622;SDS011;2833;50.432;10.706;2023-04-06T08:46:22;10.00;;;6.30;;
5622;SDS011;2833;50.432;10.706;2023-04-06T08:48:48;9.17;;;6.37;;
5622;SDS011;2833;50.432;10.706;2023-04-06T08:51:14;8.80;;;5.43;;
5622;SDS011;2833;50.432;10.706;2023-04-06T08:53:40;6.80;;;4.50;;
5622;SDS011;2833;50.432;10.706;2023-04-06T08:56:05;9.87;;;6.57;;
5622;SDS011;2833;50.432;10.706;2023-04-06T08:58:33;6.77;;;5.20;;
5622;SDS011;2833;50.432;10.706;2023-04-06T09:00:59;11.10;;;5.90;;
5622;SDS011;2833;50.432;10.706;2023-04-06T09:03:25;6.23;;;4.50;;
5622;SDS011;2833;50.432;10.706;2023-04-06T09:05:51;9.30;;;6.20;;
5622;SDS011;2833;50.432;10.706;2023-04-06T09:08:16;7.03;;;4.80;;
5622;SDS011;2833;50.432;10.706;2023-04-06T09:10:41;9.57;;;5.13;;
5622;SDS011;2833;50.432;10.706;2023-04-06T09:13:07;8.03;;;4.60;;
5622;SDS011;2833;50.432;10.706;2023-04-06T09:15:32;10.50;;;5.83;;
5622;SDS011;2833;50.432;10.706;2023-04-06T09:17:57;9.40;;;4.53;;
5622;SDS011;2833;50.432;10.706;2023-04-06T09:20:23;14.47;;;6.23;;
5622;SDS011;2833;50.432;10.706;2023-04-06T09:22:51;8.03;;;5.13;;
5622;SDS011;2833;50.432;10.706;2023-04-06T09:25:20;8.37;;;5.50;;
5622;SDS011;2833;50.432;10.706;2023-04-06T09:27:48;12.70;;;6.77;;
5622;SDS011;2833;50.432;10.706;2023-04-06T09:30:14;12.60;;;6.37;;
5622;SDS011;2833;50.432;10.706;2023-04-06T09:32:59;11.50;;;6.47;;
5622;SDS011;2833;50.432;10.706;2023-04-06T09:35:24;10.33;;;5.90;;
5622;SDS011;2833;50.432;10.706;2023-04-06T09:37:51;9.10;;;5.90;;
5622;SDS011;2833;50.432;10.706;2023-04-06T09:40:17;8.57;;;5.50;;
5622;SDS011;2833;50.432;10.706;2023-04-06T09:42:47;9.73;;;5.43;;
5622;SDS011;2833;50.432;10.706;2023-04-06T09:45:12;11.10;;;6.00;;
5622;SDS011;2833;50.432;10.706;2023-04-06T09:47:38;9.30;;;6.00;;
5622;SDS011;2833;50.432;10.706;2023-04-06T09:50:05;9.20;;;5.87;;
5622;SDS011;2833;50.432;10.706;2023-04-06T09:52:33;7.57;;;5.10;;
5622;SDS011;2833;50.432;10.706;2023-04-06T09:55:02;10.80;;;5.60;;
5622;SDS011;2833;50.432;10.706;2023-04-06T10:00:06;12.53;;;6.50;;
5622;SDS011;2833;50.432;10.706;2023-04-06T10:02:45;9.37;;;5.77;;
5622;SDS011;2833;50.432;10.706;2023-04-06T10:07:56;8.97;;;5.23;;
5622;SDS011;2833;50.432;10.706;2023-04-06T10:10:22;10.83;;;6.10;;
5622;SDS011;2833;50.432;10.706;2023-04-06T10:12:47;11.50;;;7.00;;
5622;SDS011;2833;50.432;10.706;2023-04-06T10:15:12;9.00;;;5.63;;
5622;SDS011;2833;50.432;10.706;2023-04-06T10:17:37;10.93;;;6.47;;
5622;SDS011;2833;50.432;10.706;2023-04-06T10:20:10;11.03;;;7.07;;
5622;SDS011;2833;50.432;10.706;2023-04-06T10:22:37;8.77;;;6.17;;
5622;SDS011;2833;50.432;10.706;2023-04-06T10:25:03;11.83;;;6.43;;
5622;SDS011;2833;50.432;10.706;2023-04-06T10:27:29;15.60;;;6.53;;
5622;SDS011;2833;50.432;10.706;2023-04-06T10:30:05;8.33;;;5.43;;
5622;SDS011;2833;50.432;10.706;2023-04-06T10:32:32;12.37;;;6.07;;
5622;SDS011;2833;50.432;10.706;2023-04-06T10:35:04;9.10;;;6.80;;
5622;SDS011;2833;50.432;10.706;2023-04-06T10:37:45;15.70;;;7.07;;
5622;SDS011;2833;50.432;10.706;2023-04-06T10:40:21;14.93;;;7.17;;
5622;SDS011;2833;50.432;10.706;2023-04-06T10:42:47;8.80;;;5.90;;
5622;SDS011;2833;50.432;10.706;2023-04-06T10:45:19;12.10;;;6.70;;
5622;SDS011;2833;50.432;10.706;2023-04-06T10:47:44;7.60;;;4.87;;
5622;SDS011;2833;50.432;10.706;2023-04-06T10:50:10;6.73;;;3.80;;
5622;SDS011;2833;50.432;10.706;2023-04-06T10:52:37;12.00;;;7.43;;
5622;SDS011;2833;50.432;10.706;2023-04-06T10:55:02;8.03;;;4.60;;
5622;SDS011;2833;50.432;10.706;2023-04-06T10:57:28;13.40;;;7.27;;
5622;SDS011;2833;50.432;10.706;2023-04-06T10:59:53;11.10;;;7.17;;
5622;SDS011;2833;50.432;10.706;2023-04-06T11:02:19;12.10;;;6.10;;
5622;SDS011;2833;50.432;10.706;2023-04-06T11:04:53;7.43;;;4.53;;
5622;SDS011;2833;50.432;10.706;2023-04-06T11:07:22;15.87;;;7.60;;
5622;SDS011;2833;50.432;10.706;2023-04-06T11:09:49;11.37;;;7.40;;
5622;SDS011;2833;50.432;10.706;2023-04-06T11:12:24;11.23;;;5.97;;
5622;SDS011;2833;50.432;10.706;2023-04-06T11:15:00;13.67;;;8.27;;
5622;SDS011;2833;50.432;10.706;2023-04-06T11:17:34;13.00;;;7.63;;
5622;SDS011;2833;50.432;10.706;2023-04-06T11:20:01;10.47;;;7.33;;
5622;SDS011;2833;50.432;10.706;2023-04-06T11:22:27;11.07;;;6.90;;
5622;SDS011;2833;50.432;10.706;2023-04-06T11:24:52;11.30;;;6.87;;
5622;SDS011;2833;50.432;10.706;2023-04-06T11:27:18;22.00;;;11.33;;
5622;SDS011;2833;50.432;10.706;2023-04-06T11:29:44;18.63;;;8.60;;
5622;SDS011;2833;50.432;10.706;2023-04-06T11:32:11;14.73;;;8.40;;
5622;SDS011;2833;50.432;10.706;2023-04-06T11:34:37;14.50;;;5.33;;
5622;SDS011;2833;50.432;10.706;2023-04-06T11:37:06;12.10;;;7.80;;
5622;SDS011;2833;50.432;10.706;2023-04-06T11:39:32;11.63;;;7.00;;
5622;SDS011;2833;50.432;10.706;2023-04-06T11:42:02;10.73;;;6.40;;
5622;SDS011;2833;50.432;10.706;2023-04-06T11:44:42;9.73;;;6.60;;
5622;SDS011;2833;50.432;10.706;2023-04-06T11:47:08;10.63;;;6.80;;
5622;SDS011;2833;50.432;10.706;2023-04-06T11:49:36;12.77;;;7.43;;
5622;SDS011;2833;50.432;10.706;2023-04-06T11:52:02;13.33;;;7.80;;
5622;SDS011;2833;50.432;10.706;2023-04-06T11:54:37;14.23;;;6.90;;
5622;SDS011;2833;50.432;10.706;2023-04-06T11:57:05;6.90;;;4.90;;
5622;SDS011;2833;50.432;10.706;2023-04-06T11:59:33;18.47;;;7.87;;
5622;SDS011;2833;50.432;10.706;2023-04-06T12:01:58;14.97;;;8.50;;
5622;SDS011;2833;50.432;10.706;2023-04-06T12:04:24;10.83;;;6.70;;
5622;SDS011;2833;50.432;10.706;2023-04-06T12:06:49;13.70;;;8.10;;
5622;SDS011;2833;50.432;10.706;2023-04-06T12:09:15;9.40;;;4.73;;
5622;SDS011;2833;50.432;10.706;2023-04-06T12:11:42;11.07;;;6.27;;
5622;SDS011;2833;50.432;10.706;2023-04-06T12:14:07;2.60;;;2.13;;
5622;SDS011;2833;50.432;10.706;2023-04-06T12:16:33;8.13;;;5.80;;
5622;SDS011;2833;50.432;10.706;2023-04-06T12:18:58;16.97;;;8.50;;
5622;SDS011;2833;50.432;10.706;2023-04-06T12:21:23;15.27;;;7.97;;
5622;SDS011;2833;50.432;10.706;2023-04-06T12:23:48;12.87;;;7.60;;
5622;SDS011;2833;50.432;10.706;2023-04-06T12:26:13;10.47;;;6.90;;
5622;SDS011;2833;50.432;10.706;2023-04-06T12:28:38;9.27;;;5.10;;
5622;SDS011;2833;50.432;10.706;2023-04-06T12:31:04;14.70;;;8.20;;
5622;SDS011;2833;50.432;10.706;2023-04-06T12:33:29;10.03;;;6.97;;
5622;SDS011;2833;50.432;10.706;2023-04-06T12:35:54;9.93;;;6.20;;
5622;SDS011;2833;50.432;10.706;2023-04-06T12:38:19;10.20;;;5.90;;
5622;SDS011;2833;50.432;10.706;2023-04-06T12:40:46;12.30;;;6.83;;
5622;SDS011;2833;50.432;10.706;2023-04-06T12:43:11;8.80;;;4.93;;
5622;SDS011;2833;50.432;10.706;2023-04-06T12:45:38;11.93;;;7.20;;
5622;SDS011;2833;50.432;10.706;2023-04-06T12:48:03;12.70;;;8.17;;
5622;SDS011;2833;50.432;10.706;2023-04-06T12:50:28;14.67;;;8.33;;
5622;SDS011;2833;50.432;10.706;2023-04-06T12:52:53;11.67;;;6.50;;
5622;SDS011;2833;50.432;10.706;2023-04-06T12:55:19;11.97;;;7.20;;
5622;SDS011;2833;50.432;10.706;2023-04-06T12:57:45;15.33;;;6.93;;
5622;SDS011;2833;50.432;10.706;2023-04-06T13:00:11;17.50;;;9.27;;
5622;SDS011;2833;50.432;10.706;2023-04-06T13:02:37;15.07;;;8.07;;
5622;SDS011;2833;50.432;10.706;2023-04-06T13:05:02;14.73;;;7.70;;
5622;SDS011;2833;50.432;10.706;2023-04-06T13:07:27;23.20;;;12.93;;
5622;SDS011;2833;50.432;10.706;2023-04-06T13:09:52;14.33;;;7.73;;
5622;SDS011;2833;50.432;10.706;2023-04-06T13:12:18;17.17;;;10.40;;
5622;SDS011;2833;50.432;10.706;2023-04-06T13:14:44;12.10;;;7.90;;
5622;SDS011;2833;50.432;10.706;2023-04-06T13:17:11;7.07;;;2.93;;
5622;SDS011;2833;50.432;10.706;2023-04-06T13:19:36;9.33;;;6.37;;
5622;SDS011;2833;50.432;10.706;2023-04-06T13:22:01;10.47;;;6.30;;
5622;SDS011;2833;50.432;10.706;2023-04-06T13:24:27;17.20;;;8.10;;
5622;SDS011;2833;50.432;10.706;2023-04-06T13:26:52;5.83;;;3.53;;
5622;SDS011;2833;50.432;10.706;2023-04-06T13:29:18;11.87;;;6.67;;
5622;SDS011;2833;50.432;10.706;2023-04-06T13:31:43;15.53;;;8.40;;
5622;SDS011;2833;50.432;10.706;2023-04-06T13:34:08;13.97;;;8.30;;
5622;SDS011;2833;50.432;10.706;2023-04-06T13:36:33;11.63;;;6.27;;
5622;SDS011;2833;50.432;10.706;2023-04-06T13:38:58;13.70;;;8.33;;
5622;SDS011;2833;50.432;10.706;2023-04-06T13:41:24;16.30;;;7.30;;
5622;SDS011;2833;50.432;10.706;2023-04-06T13:43:51;10.80;;;6.10;;
5622;SDS011;2833;50.432;10.706;2023-04-06T13:46:16;12.57;;;6.70;;
5622;SDS011;2833;50.432;10.706;2023-04-06T13:48:42;15.53;;;7.50;;
5622;SDS011;2833;50.432;10.706;2023-04-06T13:51:08;8.87;;;5.50;;
5622;SDS011;2833;50.432;10.706;2023-04-06T13:53:33;12.17;;;6.30;;
5622;SDS011;2833;50.432;10.706;2023-04-06T13:55:58;12.13;;;5.97;;
5622;SDS011;2833;50.432;10.706;2023-04-06T13:58:24;10.43;;;6.43;;
5622;SDS011;2833;50.432;10.706;2023-04-06T14:00:49;12.70;;;7.03;;
5622;SDS011;2833;50.432;10.706;2023-04-06T14:03:14;13.20;;;6.37;;
5622;SDS011;2833;50.432;10.706;2023-04-06T14:05:40;7.00;;;4.07;;
5622;SDS011;2833;50.432;10.706;2023-04-06T14:08:05;11.23;;;6.03;;
5622;SDS011;2833;50.432;10.706;2023-04-06T14:10:30;14.60;;;8.20;;
5622;SDS011;2833;50.432;10.706;2023-04-06T14:12:55;10.47;;;6.43;;
5622;SDS011;2833;50.432;10.706;2023-04-06T14:15:21;13.90;;;8.73;;
5622;SDS011;2833;50.432;10.706;2023-04-06T14:17:47;8.37;;;5.90;;
5622;SDS011;2833;50.432;10.706;2023-04-06T14:20:12;15.33;;;8.87;;
5622;SDS011;2833;50.432;10.706;2023-04-06T14:22:40;16.40;;;9.20;;
5622;SDS011;2833;50.432;10.706;2023-04-06T14:25:06;11.97;;;7.60;;
5622;SDS011;2833;50.432;10.706;2023-04-06T14:27:31;8.50;;;5.10;;
5622;SDS011;2833;50.432;10.706;2023-04-06T14:29:56;10.40;;;5.13;;
5622;SDS011;2833;50.432;10.706;2023-04-06T14:32:22;8.33;;;5.43;;
5622;SDS011;2833;50.432;10.706;2023-04-06T14:34:47;7.87;;;4.53;;
5622;SDS011;2833;50.432;10.706;2023-04-06T14:37:12;11.90;;;7.27;;
5622;SDS011;2833;50.432;10.706;2023-04-06T14:39:37;11.10;;;5.90;;
5622;SDS011;2833;50.432;10.706;2023-04-06T14:42:02;3.37;;;2.70;;
5622;SDS011;2833;50.432;10.706;2023-04-06T14:44:28;9.07;;;6.17;;
5622;SDS011;2833;50.432;10.706;2023-04-06T14:46:53;17.07;;;6.80;;
5622;SDS011;2833;50.432;10.706;2023-04-06T14:49:18;13.40;;;7.60;;
5622;SDS011;2833;50.432;10.706;2023-04-06T14:51:43;11.40;;;7.40;;